Springfield, OH (45503)

7:03 PM EDT on July 03, 2015 (GMT -0400)
Snyder Park | | Change Station
CLOSE
Current Station
Personal Weather Station
Location: Springfield, OH
Elevation: 919 ft
Nearby Weather Stations

Elev 919 ft 39.93 °N, 83.85 °W | Updated 4 seconds ago

Overcast
Overcast
72.0 °F
Feels Like 73 °F
N
1.9
Wind Variable Wind from NW
Gusts 2.3 mph

Today
High -- | Low -- °F
--% Chance of Precip.
Yesterday
High -- | Low -- °F
Precip. -- in
6:11 AM 9:07 PM
Waning Gibbous, 95% visible
Pressure 29.89 in
Visibility 6.0 miles
Clouds Mostly Cloudy 6500 ft
Mostly Cloudy 8000 ft
Heat Index 73 °F
Dew Point 64 °F
Humidity 77%
Rainfall 0.00 in
Snow Depth Not available.
UV 1 out of 12
Pollen .50 out of 12
Air Quality Not available.
Flu Activity Not available.
METAR KSGH 032256Z AUTO 08003KT 6SM HZ BKN065 BKN080 22/18 A2990 RMK AO2 T02160183 BKN V OVC SLP121

More Conditions Fewer Conditions

Pressure 29.89 in
Visibility 6.0 miles
Clouds Mostly Cloudy 6500 ft
Mostly Cloudy 8000 ft
Heat Index 73 °F
Dew Point 64 °F
Humidity 77%
Rainfall 0.00 in
Snow Depth Not available.
UV 1 out of 12
Pollen .50 out of 12
Air Quality Not available.
Flu Activity Not available.
METAR KSGH 032256Z AUTO 08003KT 6SM HZ BKN065 BKN080 22/18 A2990 RMK AO2 T02160183 BKN V OVC SLP121

More Conditions Fewer Conditions

10-Day Weather Forecast

×

Almanac

Astronomy

Jul. 03, 2015 Rise Set
Actual Time
Civil Twilight
Nautical Twilight
Astronomical Twilight
Moon
Length of Visible Light
Length of Day
Tomorrow will be .
, % of the Moon is Illuminated

Today's Extremes

State Highs State Lows

Community

WunderPhotos

Upload Photos

1,834,818 photos uploaded!

WunderBlogs® & News

Nearby

Air Quality

  Air Quality AQ Index Pollutant
Not available.

Snow Depth

Station Depth Elevation

Earthquake Activity

City Distance Mag. Time & Date
Minimum magnitude displayed is 2.5.

Coastal Water Temperatures

Place Temperature

Stations

Nearby Weather Stations

Station Location Temp. Windchill Dew Point Humidity Wind Precip. Elev Updated Type